Latest Coastal Weather Observations for Cape Borda

IDT60701

Issued at 6:05 am EST Friday 22 August 2014 (issued every 10 minutes, with the page automatically refreshed every 10 minutes)

About coastal observations | Map of coastal stations | Coastal observations for TAS | Marine services | Other Formats
Station Details ID: 022823 Name: CAPE BORDA Lat: -35.75 Lon: 136.60 Height: 158.0 m
Data from the previous 72 hours. | See also: Recent months at Cape Borda
Date/Time
EST
Temp

°C
Wind Pressure Rain
since 9am
mm
Weather Cloud Vis
km
Sea
Height
m
Swell
Dir
 
Speed
knots
Gust
knots
hPa Trend Height
m
Period
s
Dir
22/06:00am 12.5 NE 12 17 1022.5 - - - - - - - - -
22/05:30am 12.6 NE 11 16 1022.5 - - - - - - - - -
22/05:00am 12.1 NE 10 14 1022.4 - - - - - - - - -
22/04:30am 12.2 ENE 11 14 1022.3 - - - - - - - - -
22/04:00am 12.3 ENE 13 18 1022.4 - - - - - - - - -
22/03:30am 12.3 ENE 13 17 1022.8 - - - - - - - - -
22/03:00am 12.4 ENE 13 19 1022.8 - - - - - - - - -
22/02:30am 12.6 ENE 14 19 1023.1 - - - - - - - - -
22/02:00am 12.6 ENE 14 20 1023.3 - - - - - - - - -
22/01:30am 12.7 ENE 14 21 1023.3 - - - - - - - - -
22/01:00am 12.8 ENE 15 20 1023.4 - - - - - - - - -
22/12:30am 12.8 ENE 15 20 1023.8 - - - - - - - - -
22/12:00am 12.8 ENE 14 20 1023.7 - - - - - - - - -
 
Date/Time
EST
Temp

°C
Wind Pressure Rain
since 9am
mm
Weather Cloud Vis
km
Sea
Height
m
Swell
Dir
 
Speed
knots
Gust
knots
hPa Trend Height
m
Period
s
Dir
21/11:30pm 12.5 ENE 13 18 1023.9 - - - - - - - - -
21/11:00pm 12.4 ENE 12 17 1024.2 - - - - - - - - -
21/10:30pm 12.4 ENE 11 16 1024.3 - - - - - - - - -
21/10:00pm 12.0 ENE 10 15 1024.4 - - - - - - - - -
21/09:30pm 10.4 E 9 12 1024.4 - - - - - - - - -
21/09:00pm 10.3 E 8 12 1024.1 - - - - - - - - -
21/08:30pm 10.5 E 9 11 1024.0 - - - - - - - - -
21/08:00pm 10.6 E 9 12 1023.9 - - - - - - - - -
21/07:30pm 11.4 E 9 12 1023.8 - - - - - - - - -
21/07:00pm 11.6 E 11 15 1023.6 - - - - - - - - -
21/06:30pm 11.7 E 10 14 1023.7 - - - - - - - - -
21/06:00pm 12.4 E 9 13 1023.3 - - - - - - - - -
21/05:30pm 13.3 ENE 9 13 1023.3 - - - - - - - - -
21/05:00pm 13.6 ENE 10 13 1023.1 - - - - - - - - -
21/04:30pm 13.6 NE 11 14 1023.0 - - - - - - - - -
21/04:00pm 14.0 NE 11 15 1023.1 - - - - - - - - -
21/03:30pm 14.0 NE 11 15 1023.4 F 0.0 Fine Mostly clear 22 1 3.5 10 SW
21/03:00pm 14.1 NE 12 16 1023.3 - - - - - - - - -
21/02:30pm 14.0 ENE 11 15 1023.5 - - - - - - - - -
21/02:00pm 13.6 ENE 12 16 1023.7 - - - - - - - - -
21/01:30pm 13.6 ENE 14 20 1024.1 - - - - - - - - -
21/01:00pm 13.6 ENE 13 18 1024.6 - - - - - - - - -
21/12:30pm 13.2 ENE 13 18 1025.2 - - - - - - - - -
21/12:00pm 13.4 ENE 13 17 1025.3 - - - - - - - - -
21/11:30am - - 13 18 - - - - - - - - - -
21/11:00am 12.8 ENE 13 17 1025.8 - 0.2 - - - - - - -
21/10:30am 12.5 ENE 13 18 1025.9 - 0.0 - - - - - - -
21/10:00am 12.0 ENE 12 16 1026.1 - 0.0 - - - - - - -
21/09:30am 11.5 ENE 11 16 1026.3 - 0.0 Fine Mostly clear 22 1 4.4 8 SW
21/08:30am 9.4 E 10 12 1026.0 - 0.0 - - - - - - -
21/08:00am 8.2 E 9 11 1026.0 - 0.0 - - - - - - -
21/07:30am 7.9 E 9 11 1026.0 - 0.0 - - - - - - -
21/07:00am 7.9 E 10 15 1025.7 - 0.0 - - - - - - -
21/06:30am 7.9 E 9 12 1025.7 F 0.0 Fine Clear 35 <0.1 4.7 9 SW
21/06:00am 7.8 E 9 12 1025.5 - 0.0 - - - - - - -
21/05:30am 8.0 E 10 13 1025.5 - 0.0 - - - - - - -
21/05:00am 7.7 E 9 13 1025.6 - 0.0 - - - - - - -
21/04:30am 7.2 E 10 12 1025.6 - 0.0 - - - - - - -
21/04:00am 6.7 E 9 12 1025.6 - 0.0 - - - - - - -
21/03:30am 7.0 E 9 13 1025.9 - 0.0 - - - - - - -
21/03:00am 7.0 E 9 13 1026.0 - 0.0 - - - - - - -
21/02:30am 7.0 E 10 13 1026.1 - 0.0 - - - - - - -
21/02:00am 7.4 E 11 15 1026.2 - 0.0 - - - - - - -
21/01:30am 7.1 E 11 14 1026.3 - 0.0 - - - - - - -
21/01:00am 6.6 ENE 9 11 1026.4 - 0.0 - - - - - - -
21/12:30am 6.8 E 8 11 1026.8 - 0.0 - - - - - - -
21/12:00am 7.1 E 9 11 1026.7 - 0.0 - - - - - - -
 
Date/Time
EST
Temp

°C
Wind Pressure Rain
since 9am
mm
Weather Cloud Vis
km
Sea
Height
m
Swell
Dir
 
Speed
knots
Gust
knots
hPa Trend Height
m
Period
s
Dir
20/11:30pm 7.2 E 9 12 1026.8 - 0.0 - - - - - - -
20/11:00pm 6.7 E 7 8 1027.0 - 0.0 - - - - - - -
20/10:30pm 7.1 E 8 9 1027.1 - 0.0 - - - - - - -
20/10:00pm 7.4 E 7 9 1027.2 - 0.0 - - - - - - -
20/09:30pm 8.2 E 8 9 1027.4 - 0.0 - - - - - - -
20/09:00pm 9.0 E 9 13 1026.9 - 0.0 - - - - - - -
20/08:30pm 9.0 ESE 7 9 1026.9 - 0.0 - - - - - - -
20/08:00pm 9.5 E 6 8 1026.7 - 0.0 - - - - - - -
20/07:30pm 9.9 ESE 6 8 1026.5 - 0.0 - - - - - - -
20/07:00pm 10.3 E 6 9 1026.3 - 0.0 - - - - - - -
20/06:30pm 10.5 ENE 7 10 1026.5 - 0.0 - - - - - - -
20/06:00pm 10.7 ENE 8 11 1026.2 - 0.0 - - - - - - -
20/05:30pm 10.9 ENE 9 11 1026.0 - 0.0 - - - - - - -
20/05:00pm 11.1 ENE 8 11 1026.0 - 0.0 - - - - - - -
20/04:30pm 11.3 ENE 9 13 1025.9 - 0.0 - - - - - - -
20/04:00pm 11.7 ENE 9 13 1026.0 - 0.0 - - - - - - -
20/03:30pm 12.3 NE 10 14 1026.2 S 0.0 Distant precip. Mostly cloudy 35 <0.1 4.1 10 SW
20/03:00pm 12.2 NE 9 13 1026.2 - 0.0 - - - - - - -
20/02:30pm 12.1 NE 10 13 1026.2 - 0.0 - - - - - - -
20/02:00pm 12.2 NE 8 11 1026.4 - 0.0 - - - - - - -
20/01:30pm 11.9 ENE 9 13 1026.8 - 0.0 - - - - - - -
20/01:00pm 12.3 NE 10 14 1027.1 - 0.0 - - - - - - -
20/12:30pm 12.2 ENE 9 13 1027.7 - 0.0 - - - - - - -
20/12:00pm 11.6 NE 9 13 1027.7 - 0.0 - - - - - - -
20/11:30am 12.8 ENE 10 13 1027.8 - 0.0 - - - - - - -
20/11:00am 11.5 NE 10 16 1028.0 - 0.0 - - - - - - -
20/10:30am 11.7 ENE 9 13 1028.0 - 0.0 - - - - - - -
20/10:00am 11.9 ENE 7 11 1027.8 - 0.0 - - - - - - -
20/09:30am 10.8 ENE 9 13 1028.0 R 0.0 Fine Partly cloudy 25 <0.1 4.4 10 SW
20/09:00am 8.9 ESE 6 8 1027.7 - 0.0 - - - - - - -
20/08:30am 8.2 E 7 8 1027.3 - 0.0 - - - - - - -
20/08:00am 8.0 ESE 7 9 1027.0 - 0.0 - - - - - - -
20/07:30am 7.7 SE 7 9 1026.7 - 0.0 - - - - - - -
20/07:00am 8.5 ENE 7 9 1026.3 - 0.0 - - - - - - -
20/06:30am 8.8 ENE 7 10 1026.5 F 0.0 Fine Mostly cloudy 25 <0.1 3.1 10 SW
20/06:00am 8.8 E 6 9 1026.2 - 0.0 - - - - - - -
20/05:30am 8.1 ESE 7 8 1026.2 - 0.0 - - - - - - -
20/05:00am 8.2 E 6 7 1026.2 - 0.0 - - - - - - -
20/04:30am 7.8 E 5 7 1026.2 - 0.0 - - - - - - -
20/04:00am 6.8 ESE 7 8 1026.2 - 0.0 - - - - - - -
20/03:30am 8.0 E 7 9 1026.5 - 0.0 - - - - - - -
20/03:00am 7.9 E 6 8 1026.5 - 0.0 - - - - - - -
20/02:30am 7.2 E 6 8 1026.6 - 0.0 - - - - - - -
20/02:00am 6.7 ESE 6 8 1026.6 - 0.0 - - - - - - -
20/01:30am 6.0 E 7 9 1026.7 - 0.0 - - - - - - -
20/01:00am 5.0 ESE 7 8 1026.9 - 0.0 - - - - - - -
20/12:30am 4.4 ESE 8 8 1027.2 - 0.0 - - - - - - -
20/12:00am 4.4 ESE 8 8 1026.8 - 0.0 - - - - - - -
 
Date/Time
EST
Temp

°C
Wind Pressure Rain
since 9am
mm
Weather Cloud Vis
km
Sea
Height
m
Swell
Dir
 
Speed
knots
Gust
knots
hPa Trend Height
m
Period
s
Dir
19/11:30pm 5.1 ESE 8 9 1026.9 - 0.0 - - - - - - -
19/11:00pm 5.3 ESE 8 9 1027.0 - 0.0 - - - - - - -
19/10:30pm 5.9 ESE 8 9 1027.0 - 0.0 - - - - - - -
19/10:00pm 5.9 ESE 8 9 1027.0 - 0.0 - - - - - - -
19/09:30pm 6.9 SE 9 11 1027.0 - 0.0 - - - - - - -
19/09:00pm 6.5 SE 10 11 1026.9 - 0.0 - - - - - - -
19/08:30pm 6.8 SE 9 10 1026.8 - 0.0 - - - - - - -
19/08:00pm 8.0 SE 8 10 1026.8 - 0.0 - - - - - - -
19/07:30pm 8.7 SE 9 11 1026.6 - 0.0 - - - - - - -
19/07:00pm 8.6 ESE 8 9 1026.5 - 0.0 - - - - - - -
19/06:30pm 9.9 ESE 6 8 1026.3 - 0.0 - - - - - - -
19/06:00pm 11.5 E 4 6 1025.7 - 0.0 - - - - - - -
19/05:30pm 12.0 CALM 0 0 1025.4 - 0.0 - - - - - - -
19/05:00pm 11.9 N 4 5 1025.4 - 0.0 - - - - - - -
19/04:30pm 12.2 WNW 5 7 1025.3 - 0.0 - - - - - - -
19/04:00pm 12.3 W 5 7 1025.4 - 0.0 - - - - - - -
19/03:30pm 12.8 WNW 5 8 1025.5 R 0.0 Fine Mostly cloudy 35 <0.1 4.5 11 SW
19/03:00pm 12.9 W 7 8 1025.1 - 0.0 - - - - - - -
19/02:30pm 13.0 W 7 10 1025.1 - 0.0 - - - - - - -
19/02:00pm 13.2 E 5 8 1025.3 - 0.0 - - - - - - -
19/01:30pm 13.2 E 5 7 1025.6 - 0.0 - - - - - - -
19/01:00pm 12.6 N 7 11 1026.0 - 0.0 - - - - - - -
19/12:30pm 12.6 NNE 7 9 1026.6 - 0.0 - - - - - - -
19/12:00pm 12.3 NE 7 9 1026.6 - 0.0 - - - - - - -
19/11:30am 12.5 NE 8 11 1026.7 - 0.0 - - - - - - -
19/11:00am 12.3 E 6 9 1026.9 - 0.0 - - - - - - -
19/10:30am 11.8 ENE 5 8 1026.9 - 0.0 - - - - - - -
19/10:00am 11.4 ENE 7 9 1026.8 - 0.0 - - - - - - -
19/09:30am 11.0 E 6 9 1026.9 R 0.8 Distant precip. Mostly cloudy 30 <0.1 4.9 11 SW
19/09:00am 10.5 E 7 9 1026.4 - 0.8 - - - - - - -
19/08:30am 9.5 E 7 10 1026.2 - 0.8 - - - - - - -
19/08:00am 7.7 ESE 8 9 1026.0 - 0.8 - - - - - - -
19/07:30am 6.0 ESE 8 9 1025.7 - 0.8 - - - - - - -
19/07:00am 5.8 ESE 9 10 1025.4 - 0.8 - - - - - - -

Other Formats:

Comma delimited format used in spreadsheet applications
http://www.bom.gov.au/fwo/IDT60701/IDT60701.95805.axf

JavaScript Object Notation format (JSON) in row-major order
http://www.bom.gov.au/fwo/IDT60701/IDT60701.95805.json